Time;durP1;ratioP1;P1;durP2;ratioP2;P2;SDS_P1;SDS_P2;PMS_P1;PMS_P2;Temp;Humidity;BMP_temperature;BMP_pressure;BME280_temperature;BME280_humidity;BME280_pressure;Samples;Min_cycle;Max_cycle;Signal;HPM_P1;HPM_P2
2021/12/15 00:01:27;;;;;;;21.63;11.77;;;;;;;1.34;100.00;97482.75;5011485;28;20305;-83
2021/12/15 00:03:54;;;;;;;38.53;11.73;;;;;;;1.37;100.00;97479.78;5018122;28;20210;-83
2021/12/15 00:06:22;;;;;;;28.63;11.63;;;;;;;1.31;100.00;97477.72;5018915;28;20245;-83
2021/12/15 00:08:52;;;;;;;20.90;12.43;;;;;;;1.31;100.00;97497.19;5017484;28;20206;-83
2021/12/15 00:11:21;;;;;;;37.20;11.87;;;;;;;1.30;100.00;97490.19;5023079;28;20266;-83
2021/12/15 00:13:50;;;;;;;40.57;12.67;;;;;;;1.26;100.00;97483.50;5023260;28;20199;-83
2021/12/15 00:16:18;;;;;;;22.97;10.80;;;;;;;1.21;100.00;97485.72;5015584;28;20237;-82
2021/12/15 00:18:46;;;;;;;16.77;11.00;;;;;;;1.22;100.00;97484.75;5023933;28;20285;-83
2021/12/15 00:21:16;;;;;;;39.30;12.23;;;;;;;1.26;100.00;97482.66;5013549;28;20207;-83
2021/12/15 00:23:45;;;;;;;18.90;11.87;;;;;;;1.26;100.00;97472.84;5012954;28;20310;-83
2021/12/15 00:26:13;;;;;;;21.43;12.20;;;;;;;1.22;100.00;97468.78;5023528;28;20202;-83
2021/12/15 00:28:41;;;;;;;33.20;11.30;;;;;;;1.25;100.00;97476.50;5023296;28;20199;-83
2021/12/15 00:31:09;;;;;;;18.50;11.43;;;;;;;1.22;100.00;97476.78;5013658;28;20207;-83
2021/12/15 00:33:39;;;;;;;19.67;11.83;;;;;;;1.21;100.00;97475.09;5025906;28;20252;-82
2021/12/15 00:36:08;;;;;;;35.83;11.60;;;;;;;1.17;100.00;97463.06;5015750;28;20221;-83
2021/12/15 00:38:36;;;;;;;28.77;11.53;;;;;;;1.11;100.00;97472.44;5020590;28;20214;-83
2021/12/15 00:41:05;;;;;;;21.53;11.77;;;;;;;1.13;100.00;97477.63;5013858;28;20202;-83
2021/12/15 00:43:32;;;;;;;20.17;11.50;;;;;;;1.15;100.00;97470.34;5018516;28;20366;-83
2021/12/15 00:45:59;;;;;;;33.57;11.40;;;;;;;1.18;100.00;97474.56;5015024;28;20226;-83
2021/12/15 00:48:29;;;;;;;19.30;10.87;;;;;;;1.15;100.00;97473.03;5014091;28;20253;-83
2021/12/15 00:50:57;;;;;;;19.60;11.27;;;;;;;1.15;100.00;97481.00;5013036;28;20215;-83
2021/12/15 00:53:28;;;;;;;30.63;10.87;;;;;;;1.10;100.00;97472.63;5020581;28;20315;-83
2021/12/15 00:55:56;;;;;;;33.57;12.00;;;;;;;1.07;100.00;97473.75;5011621;28;20229;-84
2021/12/15 00:58:23;;;;;;;26.23;11.23;;;;;;;0.98;100.00;97469.28;5018484;28;20320;-82
2021/12/15 01:00:55;;;;;;;33.37;11.93;;;;;;;1.00;100.00;97472.66;5015781;28;20202;-83
2021/12/15 01:03:23;;;;;;;31.63;10.30;;;;;;;0.99;100.00;97473.63;5017320;28;20213;-82
2021/12/15 01:05:53;;;;;;;14.50;9.87;;;;;;;1.05;100.00;97475.69;5014039;28;20230;-83
2021/12/15 01:08:24;;;;;;;34.03;11.07;;;;;;;1.09;100.00;97465.63;5020424;28;20213;-83
2021/12/15 01:11:06;;;;;;;20.87;10.90;;;;;;;1.06;100.00;97476.53;5011932;28;20288;-84
2021/12/15 01:22:00;;;;;;;35.60;11.80;;;;;;;0.96;100.00;97481.88;5023927;28;20217;-83
2021/12/15 01:24:27;;;;;;;25.03;10.33;;;;;;;0.88;100.00;97479.09;5023133;28;20208;-83
2021/12/15 01:26:56;;;;;;;20.23;10.37;;;;;;;0.95;100.00;97479.34;5017344;28;20246;-84
2021/12/15 01:29:23;;;;;;;34.93;11.53;;;;;;;0.95;100.00;97482.00;5012695;28;20195;-83
2021/12/15 01:31:50;;;;;;;33.77;12.17;;;;;;;0.96;100.00;97483.69;5015406;28;20207;-83
2021/12/15 01:34:18;;;;;;;27.50;11.00;;;;;;;0.93;100.00;97481.34;5009476;28;20206;-84
2021/12/15 01:36:45;;;;;;;23.43;10.87;;;;;;;0.87;100.00;97476.56;5014635;28;20276;-83
2021/12/15 01:39:12;;;;;;;20.57;10.87;;;;;;;0.91;100.00;97489.44;5016360;28;20304;-83
2021/12/15 01:41:42;;;;;;;21.03;10.47;;;;;;;0.95;100.00;97484.66;5020037;28;20214;-82
2021/12/15 01:47:01;;;;;;;17.60;10.33;;;;;;;0.95;100.00;97498.81;5015314;28;20197;-83
2021/12/15 01:49:37;;;;;;;18.33;10.80;;;;;;;0.90;100.00;97501.06;5014273;28;20343;-83
2021/12/15 01:52:13;;;;;;;20.43;10.60;;;;;;;0.89;100.00;97496.72;5032622;28;20208;-83
2021/12/15 01:54:43;;;;;;;17.67;9.90;;;;;;;0.96;100.00;97507.63;5030946;28;20223;-83
2021/12/15 01:57:13;;;;;;;15.47;9.67;;;;;;;0.98;100.00;97508.31;5014534;28;20233;-83
2021/12/15 01:59:43;;;;;;;20.27;9.87;;;;;;;0.90;100.00;97486.94;5019929;28;20199;-83
2021/12/15 02:02:10;;;;;;;31.63;11.93;;;;;;;0.84;100.00;97498.97;5015101;28;20208;-82
2021/12/15 02:04:37;;;;;;;17.43;10.13;;;;;;;0.88;100.00;97507.50;5015674;28;20297;-83
2021/12/15 02:07:07;;;;;;;18.03;10.03;;;;;;;0.90;100.00;97508.19;5017923;28;20325;-83
2021/12/15 02:10:01;;;;;;;24.27;11.00;;;;;;;0.90;100.00;97503.72;5018790;28;20210;-84
2021/12/15 02:12:34;;;;;;;24.07;11.33;;;;;;;0.88;100.00;97504.84;5015490;28;20204;-83
2021/12/15 02:15:10;;;;;;;33.20;10.77;;;;;;;0.85;100.00;97500.63;5015161;28;20207;-83
2021/12/15 02:17:37;;;;;;;38.00;10.57;;;;;;;0.84;100.00;97498.97;5013892;28;20199;-83
2021/12/15 02:20:07;;;;;;;25.60;10.43;;;;;;;0.83;100.00;97496.47;5014528;28;20213;-83
2021/12/15 02:22:35;;;;;;;31.70;10.20;;;;;;;0.74;100.00;97493.66;5033460;28;20201;-83
2021/12/15 02:25:06;;;;;;;19.43;9.90;;;;;;;0.66;100.00;97495.34;5019024;28;20199;-83
2021/12/15 02:27:35;;;;;;;30.93;11.07;;;;;;;0.65;100.00;97499.84;5011943;28;20208;-83
2021/12/15 02:30:18;;;;;;;27.20;11.30;;;;;;;0.63;100.00;97499.13;5021256;28;20218;-83
2021/12/15 02:32:57;;;;;;;25.33;11.33;;;;;;;0.68;100.00;97509.34;5016806;28;20205;-83
2021/12/15 02:38:11;;;;;;;20.70;11.17;;;;;;;0.69;100.00;97495.91;5009357;28;20207;-82
2021/12/15 02:40:39;;;;;;;19.43;10.37;;;;;;;0.70;100.00;97497.56;5017079;28;20213;-83
2021/12/15 02:43:07;;;;;;;25.40;11.00;;;;;;;0.68;100.00;97494.22;5017372;28;20284;-83
2021/12/15 02:45:35;;;;;;;27.20;10.47;;;;;;;0.72;100.00;97508.91;5013131;28;20308;-83
2021/12/15 02:48:02;;;;;;;29.30;11.30;;;;;;;0.70;100.00;97497.56;5017726;28;20262;-83
2021/12/15 02:50:31;;;;;;;22.20;10.50;;;;;;;0.73;100.00;97501.78;5011104;28;20207;-83
2021/12/15 02:52:59;;;;;;;20.97;9.63;;;;;;;0.80;100.00;97507.38;5012601;28;20247;-83
2021/12/15 02:55:29;;;;;;;18.07;9.83;;;;;;;0.81;100.00;97504.56;5021158;28;20280;-83
2021/12/15 02:57:56;;;;;;;19.87;9.90;;;;;;;0.87;100.00;97509.31;5025663;28;20223;-82
2021/12/15 03:00:29;;;;;;;21.13;10.23;;;;;;;0.91;100.00;97510.72;5013675;28;20203;-83
2021/12/15 03:03:28;;;;;;;17.30;9.90;;;;;;;0.93;100.00;97502.63;5016021;28;20205;-83
2021/12/15 03:06:02;;;;;;;21.70;10.23;;;;;;;0.91;100.00;97515.19;5018975;28;20228;-83
2021/12/15 03:08:49;;;;;;;17.93;8.77;;;;;;;0.85;100.00;97503.28;5022682;28;20209;-83
2021/12/15 03:16:47;;;;;;;22.20;9.23;;;;;;;0.88;100.00;97526.13;5021379;28;20222;-83
2021/12/15 03:19:14;;;;;;;31.50;10.43;;;;;;;0.88;100.00;97521.63;5027227;28;20214;-82
2021/12/15 03:21:41;;;;;;;33.43;9.57;;;;;;;0.86;100.00;97522.75;5022184;28;20210;-83
2021/12/15 03:24:13;;;;;;;33.97;9.87;;;;;;;0.85;100.00;97531.72;5019347;28;20224;-83
2021/12/15 03:26:50;;;;;;;43.73;9.47;;;;;;;0.83;100.00;97523.06;5020763;28;20227;-83
2021/12/15 03:35:03;;;;;;;40.27;10.73;;;;;;;0.90;100.00;97532.97;5019541;28;20248;-83
2021/12/15 03:37:33;;;;;;;29.67;9.87;;;;;;;0.92;100.00;97532.84;5015105;28;20233;-83
2021/12/15 03:40:07;;;;;;;30.40;9.33;;;;;;;0.89;100.00;97530.44;5021867;28;20214;-84
2021/12/15 03:42:40;;;;;;;39.83;9.97;;;;;;;0.89;100.00;97533.94;5014734;28;20294;-83
2021/12/15 03:45:10;;;;;;;36.03;9.33;;;;;;;0.87;100.00;97525.28;5020801;28;20231;-83
2021/12/15 03:47:41;;;;;;;36.93;10.10;;;;;;;0.91;100.00;97529.34;5021600;28;20199;-83
2021/12/15 03:50:11;;;;;;;39.47;9.57;;;;;;;0.90;100.00;97526.81;5016051;28;20207;-83
2021/12/15 03:52:38;;;;;;;56.50;9.77;;;;;;;0.91;100.00;97531.16;5016203;28;20203;-82
2021/12/15 03:55:07;;;;;;;66.63;9.83;;;;;;;0.98;100.00;97537.59;5015930;28;20200;-83
2021/12/15 03:57:36;;;;;;;63.57;10.40;;;;;;;0.95;100.00;97538.69;5019673;28;20234;-82
2021/12/15 04:00:06;;;;;;;46.30;9.53;;;;;;;0.96;100.00;97544.84;5021400;28;20205;-83
2021/12/15 04:02:40;;;;;;;40.27;9.03;;;;;;;0.96;100.00;97539.53;5022872;28;20226;-83
2021/12/15 04:05:09;;;;;;;23.20;8.40;;;;;;;1.00;100.00;97541.78;5012737;28;20231;-83
2021/12/15 04:07:37;;;;;;;42.50;9.13;;;;;;;1.03;100.00;97546.81;4997977;28;20219;-83
2021/12/15 04:10:05;;;;;;;42.80;8.70;;;;;;;1.03;100.00;97546.81;4997073;28;20211;-82
2021/12/15 04:12:32;;;;;;;58.37;8.40;;;;;;;0.99;100.00;97544.59;4998660;28;20305;-84
2021/12/15 04:15:20;;;;;;;44.70;9.10;;;;;;;0.91;100.00;97536.47;5003412;28;20216;-83
2021/12/15 04:17:48;;;;;;;37.47;9.37;;;;;;;0.95;100.00;97545.84;4998031;28;20223;-82
2021/12/15 04:20:19;;;;;;;32.53;9.50;;;;;;;0.91;100.00;97536.47;5013249;28;20239;-83
2021/12/15 04:22:46;;;;;;;29.40;8.53;;;;;;;0.97;100.00;97538.56;5008514;28;20213;-83
2021/12/15 04:25:16;;;;;;;19.50;8.50;;;;;;;0.99;100.00;97541.94;5001296;28;20205;-82
2021/12/15 04:27:53;;;;;;;29.20;9.47;;;;;;;0.98;100.00;97543.75;4994710;28;20206;-82
2021/12/15 04:30:23;;;;;;;32.07;9.43;;;;;;;0.97;100.00;97547.38;5001401;28;20220;-82
2021/12/15 04:32:53;;;;;;;30.47;10.00;;;;;;;0.94;100.00;97545.00;5000863;28;20204;-82
2021/12/15 04:35:20;;;;;;;21.10;9.53;;;;;;;0.99;100.00;97550.75;5009844;28;20295;-83
2021/12/15 04:37:49;;;;;;;21.67;8.40;;;;;;;0.94;100.00;97547.66;4998773;28;20288;-83
2021/12/15 04:40:18;;;;;;;15.93;8.53;;;;;;;1.01;100.00;97551.47;5015816;28;20210;-83
2021/12/15 04:42:46;;;;;;;20.20;9.07;;;;;;;0.98;100.00;97540.25;4996000;28;20204;-83
2021/12/15 04:45:17;;;;;;;25.37;9.00;;;;;;;1.03;100.00;97551.28;4999147;28;20224;-83
2021/12/15 04:47:46;;;;;;;20.07;8.90;;;;;;;0.97;100.00;97544.72;5005417;28;20232;-82
2021/12/15 04:50:14;;;;;;;28.13;8.27;;;;;;;0.96;100.00;97540.38;4998127;28;20216;-82
2021/12/15 04:52:41;;;;;;;18.60;9.00;;;;;;;0.90;100.00;97535.63;5007730;28;20212;-82
2021/12/15 04:55:09;;;;;;;27.63;10.07;;;;;;;0.96;100.00;97539.53;4994497;28;20286;-83
2021/12/15 04:57:37;;;;;;;30.47;8.70;;;;;;;0.99;100.00;97541.94;5001488;28;20216;-83
2021/12/15 05:00:08;;;;;;;26.93;10.03;;;;;;;1.05;100.00;97547.50;5003651;28;20197;-83
2021/12/15 05:02:36;;;;;;;29.53;8.97;;;;;;;1.07;100.00;97548.22;5000269;28;20276;-83
2021/12/15 05:05:06;;;;;;;42.30;9.77;;;;;;;1.09;100.00;97550.75;5001279;28;20211;-83
2021/12/15 05:07:33;;;;;;;31.13;10.63;;;;;;;1.10;100.00;97545.28;5043307;28;20222;-83
2021/12/15 05:10:00;;;;;;;32.50;10.57;;;;;;;1.10;100.00;97545.28;5014708;28;20199;-83
2021/12/15 05:12:28;;;;;;;29.67;10.47;;;;;;;1.12;100.00;97534.47;5033862;28;20272;-82
2021/12/15 05:14:55;;;;;;;27.80;9.10;;;;;;;1.16;100.00;97535.88;5028931;28;20198;-84
2021/12/15 05:17:22;;;;;;;47.47;10.47;;;;;;;1.20;100.00;97542.59;5026038;28;20215;-83
2021/12/15 05:19:49;;;;;;;29.40;10.10;;;;;;;1.19;100.00;97542.75;5020332;28;20190;-83
2021/12/15 05:22:18;;;;;;;29.53;10.43;;;;;;;1.17;100.00;97542.88;5026504;28;20241;-82
2021/12/15 05:24:45;;;;;;;26.33;9.73;;;;;;;1.12;100.00;97540.63;5019508;28;20204;-82
2021/12/15 05:27:16;;;;;;;36.03;9.77;;;;;;;1.11;100.00;97540.78;5035736;28;20198;-82
2021/12/15 05:29:45;;;;;;;34.57;8.93;;;;;;;1.14;100.00;97538.69;5018030;28;20208;-82
2021/12/15 05:32:16;;;;;;;24.13;8.77;;;;;;;1.10;100.00;97531.97;5028113;28;20232;-82
2021/12/15 05:34:43;;;;;;;57.77;10.43;;;;;;;1.09;100.00;97535.63;5029686;28;20210;-82
2021/12/15 05:37:10;;;;;;;49.63;10.37;;;;;;;1.12;100.00;97545.97;5023121;28;20229;-83
2021/12/15 05:39:40;;;;;;;44.57;10.73;;;;;;;1.15;100.00;97544.84;5015927;28;20214;-82
2021/12/15 05:42:08;;;;;;;39.97;10.10;;;;;;;1.16;100.00;97548.34;5022728;28;20245;-82
2021/12/15 05:44:35;;;;;;;35.90;10.00;;;;;;;1.17;100.00;97553.53;5041634;28;20233;-82
2021/12/15 05:47:05;;;;;;;34.63;9.53;;;;;;;1.10;100.00;97547.09;5021217;28;20210;-82
2021/12/15 05:49:33;;;;;;;45.87;9.80;;;;;;;1.09;100.00;97562.22;5023300;28;20206;-82
2021/12/15 05:52:01;;;;;;;31.47;9.90;;;;;;;1.07;100.00;97547.38;5018425;28;20229;-82
2021/12/15 05:54:29;;;;;;;31.43;10.03;;;;;;;1.04;100.00;97553.81;5019339;28;20207;-82
2021/12/15 05:56:58;;;;;;;34.20;9.50;;;;;;;1.03;100.00;97562.78;5019327;28;20305;-83
2021/12/15 05:59:26;;;;;;;44.83;11.03;;;;;;;1.01;100.00;97561.25;5022112;28;20307;-82
2021/12/15 06:01:54;;;;;;;34.03;11.07;;;;;;;1.07;100.00;97558.03;5021167;28;20301;-83
2021/12/15 06:04:21;;;;;;;37.93;10.23;;;;;;;1.10;100.00;97568.38;5024672;28;20252;-83
2021/12/15 06:06:49;;;;;;;56.57;11.53;;;;;;;1.12;100.00;97567.25;5020654;28;20234;-82
2021/12/15 06:09:16;;;;;;;23.70;10.77;;;;;;;1.18;100.00;97567.69;5022448;28;20284;-82
2021/12/15 06:11:47;;;;;;;36.33;11.47;;;;;;;1.21;100.00;97568.22;5018290;28;20290;-83
2021/12/15 06:14:23;;;;;;;40.40;12.13;;;;;;;1.19;100.00;97572.00;5037171;28;20217;-83
2021/12/15 06:16:52;;;;;;;34.57;12.47;;;;;;;1.14;100.00;97561.78;5020896;28;20244;-83
2021/12/15 06:19:19;;;;;;;43.37;10.53;;;;;;;1.17;100.00;97574.81;5018389;28;20202;-83
2021/12/15 06:21:46;;;;;;;29.87;11.33;;;;;;;1.17;100.00;97568.66;5036013;28;20195;-83
2021/12/15 06:24:13;;;;;;;41.07;11.47;;;;;;;1.17;100.00;97569.50;5025033;28;20211;-83
2021/12/15 06:26:41;;;;;;;35.90;10.93;;;;;;;1.30;100.00;97572.69;5023815;28;20264;-82
2021/12/15 06:29:08;;;;;;;32.97;10.70;;;;;;;1.52;100.00;97580.34;5024343;28;20210;-82
2021/12/15 06:31:38;;;;;;;28.83;9.60;;;;;;;1.52;100.00;97575.03;5022992;28;20250;-82
2021/12/15 06:34:05;;;;;;;31.53;10.47;;;;;;;1.38;100.00;97571.97;5020325;28;20205;-82
2021/12/15 06:36:33;;;;;;;32.17;9.60;;;;;;;1.23;100.00;97579.56;5025276;28;20218;-82
2021/12/15 06:39:01;;;;;;;35.83;10.40;;;;;;;1.23;100.00;97582.22;5044398;28;20260;-82
2021/12/15 06:41:29;;;;;;;21.07;9.77;;;;;;;1.21;100.00;97591.31;5018932;28;20272;-82
2021/12/15 06:43:58;;;;;;;36.00;10.53;;;;;;;1.22;100.00;97606.31;5021481;28;20203;-81
2021/12/15 06:46:57;;;;;;;33.77;9.83;;;;;;;1.19;100.00;97601.28;5030590;28;20208;-82
2021/12/15 07:00:23;;;;;;;42.90;11.07;;;;;;;1.33;100.00;97612.31;5025776;28;20212;-84
2021/12/15 07:02:50;;;;;;;27.20;11.47;;;;;;;1.23;100.00;97600.84;5022258;28;20220;-82
2021/12/15 07:05:19;;;;;;;32.07;10.20;;;;;;;1.24;100.00;97604.34;5020230;28;20217;-82
2021/12/15 07:07:48;;;;;;;32.90;11.10;;;;;;;1.20;100.00;97609.09;5020408;28;20230;-83
2021/12/15 07:10:19;;;;;;;25.53;11.43;;;;;;;1.16;100.00;97615.69;5018699;28;20219;-83
2021/12/15 07:12:46;;;;;;;36.37;11.53;;;;;;;1.18;100.00;97611.09;5016253;28;20207;-83
2021/12/15 07:15:13;;;;;;;45.70;11.63;;;;;;;1.15;100.00;97614.00;5015058;28;20207;-83
2021/12/15 07:17:40;;;;;;;39.10;11.23;;;;;;;1.13;100.00;97611.47;5018571;28;20315;-83
2021/12/15 07:20:31;;;;;;;31.90;11.13;;;;;;;1.12;100.00;97609.81;5021261;28;20203;-83
2021/12/15 07:23:01;;;;;;;33.80;12.37;;;;;;;1.15;100.00;97616.66;5026359;28;20210;-83
2021/12/15 07:25:30;;;;;;;25.97;11.37;;;;;;;1.13;100.00;97615.97;5020380;28;20218;-84
2021/12/15 07:27:58;;;;;;;38.60;11.57;;;;;;;1.12;100.00;97612.47;5021892;28;20210;-83
2021/12/15 07:30:26;;;;;;;23.73;10.10;;;;;;;1.11;100.00;97618.75;5018834;28;20211;-83
2021/12/15 07:32:53;;;;;;;23.23;10.37;;;;;;;1.11;100.00;97631.22;5017504;28;20267;-83
2021/12/15 07:35:22;;;;;;;23.10;10.67;;;;;;;1.06;100.00;97621.00;5014556;28;20199;-83
2021/12/15 07:37:50;;;;;;;24.70;11.30;;;;;;;1.02;100.00;97621.44;5018908;28;20211;-82
2021/12/15 07:40:21;;;;;;;24.93;10.33;;;;;;;1.03;100.00;97623.09;5025803;28;20213;-82
2021/12/15 07:43:05;;;;;;;24.17;10.17;;;;;;;1.06;100.00;97625.50;5018988;28;20211;-82
2021/12/15 07:45:35;;;;;;;25.90;10.33;;;;;;;1.12;100.00;97636.41;5033257;28;20227;-82
2021/12/15 07:48:04;;;;;;;23.27;9.50;;;;;;;1.17;100.00;97629.84;5022688;28;20242;-81
2021/12/15 07:50:33;;;;;;;31.70;10.90;;;;;;;1.21;100.00;97632.06;5014941;28;20199;-81
2021/12/15 07:53:01;;;;;;;24.20;10.80;;;;;;;1.25;100.00;97633.47;5016873;28;20204;-83
2021/12/15 07:55:31;;;;;;;18.07;9.07;;;;;;;1.28;100.00;97629.66;5020097;28;20247;-82
2021/12/15 07:57:58;;;;;;;25.37;10.03;;;;;;;1.33;100.00;97627.44;5023049;28;20233;-83
2021/12/15 08:00:26;;;;;;;22.40;11.23;;;;;;;1.28;100.00;97627.84;5024532;28;20220;-82
2021/12/15 08:02:54;;;;;;;18.93;10.20;;;;;;;1.29;100.00;97632.19;5026028;28;20296;-82
2021/12/15 08:05:21;;;;;;;20.13;9.50;;;;;;;1.28;100.00;97633.19;5021359;28;20215;-82
2021/12/15 08:07:48;;;;;;;22.10;10.33;;;;;;;1.19;100.00;97630.53;5021494;28;20227;-82
2021/12/15 08:10:16;;;;;;;22.23;9.80;;;;;;;1.25;100.00;97644.13;5015657;28;20211;-82
2021/12/15 08:12:47;;;;;;;19.37;9.00;;;;;;;1.32;100.00;97642.56;5016759;28;20210;-81
2021/12/15 08:15:16;;;;;;;21.07;10.97;;;;;;;1.37;100.00;97639.47;5020020;28;20215;-83
2021/12/15 08:17:48;;;;;;;27.60;10.33;;;;;;;1.37;100.00;97640.31;5028034;28;20321;-83
2021/12/15 08:20:16;;;;;;;19.67;9.23;;;;;;;1.21;100.00;97629.41;5031991;28;20219;-82
2021/12/15 08:22:43;;;;;;;18.87;9.00;;;;;;;1.17;100.00;97633.34;5020915;28;20211;-82
2021/12/15 08:25:12;;;;;;;21.80;10.17;;;;;;;1.18;100.00;97635.03;5021190;28;20217;-82
2021/12/15 08:27:40;;;;;;;21.67;10.33;;;;;;;1.11;100.00;97620.59;5017706;28;20211;-83
2021/12/15 08:30:12;;;;;;;21.10;10.27;;;;;;;1.15;100.00;97619.34;5020813;28;20212;-82
2021/12/15 08:32:40;;;;;;;22.33;9.90;;;;;;;1.09;100.00;97619.91;5026390;28;20332;-83
2021/12/15 08:35:08;;;;;;;16.47;8.80;;;;;;;1.14;100.00;97630.94;5016368;28;20211;-82
2021/12/15 08:37:37;;;;;;;21.00;9.07;;;;;;;1.10;100.00;97621.59;5021624;28;20220;-82
2021/12/15 08:40:06;;;;;;;20.23;9.50;;;;;;;1.13;100.00;97632.78;5014467;28;20213;-82
2021/12/15 08:42:33;;;;;;;21.47;10.43;;;;;;;1.18;100.00;97626.19;5013081;28;20207;-83
2021/12/15 08:45:00;;;;;;;23.80;10.20;;;;;;;1.12;100.00;97624.91;5021208;28;20290;-82
2021/12/15 08:47:30;;;;;;;16.83;9.33;;;;;;;1.17;100.00;97624.53;5014852;28;20238;-82
2021/12/15 08:49:58;;;;;;;15.93;8.70;;;;;;;1.11;100.00;97620.59;5016090;28;20227;-81
2021/12/15 08:52:25;;;;;;;27.60;10.53;;;;;;;1.20;100.00;97633.03;5017264;28;20198;-82
2021/12/15 08:54:52;;;;;;;25.07;10.30;;;;;;;1.17;100.00;97637.81;5016340;28;20304;-82
2021/12/15 08:57:19;;;;;;;22.37;9.47;;;;;;;1.20;100.00;97633.03;5020759;28;20207;-82
2021/12/15 08:59:46;;;;;;;16.97;9.20;;;;;;;1.22;100.00;97628.44;5017555;28;20217;-82
2021/12/15 09:02:14;;;;;;;21.37;9.43;;;;;;;1.28;100.00;97624.34;5013606;28;20209;-83
2021/12/15 09:04:42;;;;;;;21.13;9.63;;;;;;;1.28;100.00;97621.69;5022140;28;20207;-81
2021/12/15 09:07:10;;;;;;;20.33;9.10;;;;;;;1.22;100.00;97614.28;5016963;28;20231;-83
2021/12/15 09:09:37;;;;;;;22.40;8.73;;;;;;;1.17;100.00;97612.06;5020150;28;20218;-82
2021/12/15 09:12:06;;;;;;;24.27;9.23;;;;;;;1.08;100.00;97615.56;5012418;28;20306;-82
2021/12/15 09:14:33;;;;;;;23.80;9.20;;;;;;;1.03;100.00;97615.97;5012698;28;20226;-83
2021/12/15 09:17:01;;;;;;;22.60;8.47;;;;;;;1.01;100.00;97617.09;5017973;28;20294;-82
2021/12/15 09:19:30;;;;;;;19.30;8.90;;;;;;;1.04;100.00;97616.81;5015162;28;20215;-82
2021/12/15 09:21:58;;;;;;;18.90;9.07;;;;;;;1.07;100.00;97612.06;5012027;28;20290;-83
2021/12/15 09:24:26;;;;;;;17.07;8.47;;;;;;;1.16;100.00;97615.69;5020511;28;20231;-82
2021/12/15 09:26:55;;;;;;;38.23;8.97;;;;;;;1.14;100.00;97617.66;5016184;28;20209;-81
2021/12/15 09:29:23;;;;;;;23.57;8.93;;;;;;;1.16;100.00;97614.84;5018953;28;20261;-82
2021/12/15 09:31:51;;;;;;;16.07;8.77;;;;;;;1.20;100.00;97614.41;5033349;28;20203;-81
2021/12/15 09:34:18;;;;;;;21.37;8.70;;;;;;;1.27;100.00;97614.72;5014996;28;20241;-83
2021/12/15 09:36:47;;;;;;;17.70;9.37;;;;;;;1.36;100.00;97616.53;5016856;28;20266;-82
2021/12/15 09:39:19;;;;;;;18.30;10.03;;;;;;;1.43;100.00;97621.13;5026111;28;20235;-83
2021/12/15 09:41:48;;;;;;;17.77;9.27;;;;;;;1.48;100.00;97624.19;5016369;28;20215;-83
2021/12/15 09:44:19;;;;;;;16.37;9.57;;;;;;;1.51;100.00;97618.59;5010024;28;20238;-83
2021/12/15 10:03:32;;;;;;;20.90;9.73;;;;;;;2.17;100.00;97607.88;5020985;28;20202;-82
2021/12/15 10:06:08;;;;;;;20.57;9.63;;;;;;;2.31;100.00;97603.03;5024551;28;20230;-81
2021/12/15 10:17:41;;;;;;;15.97;8.47;;;;;;;1.93;100.00;97604.88;4947351;28;20223;-81
2021/12/15 10:20:18;;;;;;;22.57;9.03;;;;;;;1.86;100.00;97599.31;5014353;28;20259;-84
2021/12/15 10:22:48;;;;;;;20.93;8.70;;;;;;;1.82;100.00;97589.91;5025512;28;20219;-86
2021/12/15 10:25:24;;;;;;;22.67;10.27;;;;;;;1.77;100.00;97596.69;5021610;28;20219;-89
2021/12/15 10:27:55;;;;;;;14.60;8.40;;;;;;;1.79;100.00;97598.19;5018132;28;20214;-86
2021/12/15 10:30:26;;;;;;;22.03;11.77;;;;;;;1.86;100.00;97593.13;5020019;28;20253;-87
2021/12/15 10:32:58;;;;;;;17.63;8.83;;;;;;;1.98;100.00;97599.94;5021173;28;20241;-88
2021/12/15 10:35:29;;;;;;;15.63;8.77;;;;;;;2.08;100.00;97590.09;5020842;28;20210;-87
2021/12/15 10:38:24;;;;;;;19.83;12.50;;;;;;;2.16;100.00;97587.53;5015807;28;20215;-87
2021/12/15 10:40:58;;;;;;;22.10;10.23;;;;;;;2.16;100.00;97587.53;5019419;28;20216;-86
2021/12/15 10:43:32;;;;;;;18.03;9.03;;;;;;;2.08;100.00;97584.78;5023343;28;20214;-87
2021/12/15 10:46:02;;;;;;;19.60;9.07;;;;;;;2.02;100.00;97582.69;5018472;28;20244;-87
2021/12/15 10:48:38;;;;;;;20.43;9.13;;;;;;;1.97;100.00;97578.78;5019449;28;20210;-89
2021/12/15 10:51:24;;;;;;;14.77;8.63;;;;;;;2.09;100.00;97591.78;5019607;28;20242;-85
2021/12/15 10:53:57;;;;;;;17.37;9.03;;;;;;;2.16;100.00;97594.69;5020176;28;20211;-87
2021/12/15 10:56:29;;;;;;;15.20;8.50;;;;;;;2.17;100.00;97586.56;5026415;28;20207;-88
2021/12/15 10:59:01;;;;;;;16.20;8.20;;;;;;;2.21;100.00;97598.56;5029026;28;20225;-88
2021/12/15 11:02:09;;;;;;;16.43;8.87;;;;;;;2.28;100.00;97599.69;5019077;28;20199;-86
2021/12/15 11:04:43;;;;;;;14.33;8.80;;;;;;;2.24;100.00;97600.13;5024622;28;20253;-88
2021/12/15 11:07:23;;;;;;;14.97;8.67;;;;;;;2.29;100.00;97597.88;5028993;28;20224;-88
2021/12/15 11:09:55;;;;;;;14.27;8.00;;;;;;;2.25;100.00;97602.63;5025859;28;20246;-89
2021/12/15 11:12:26;;;;;;;12.63;7.70;;;;;;;2.26;100.00;97593.66;5027767;28;20306;-88
2021/12/15 11:14:58;;;;;;;15.50;7.70;;;;;;;2.25;100.00;97599.13;5024168;28;20208;-89
2021/12/15 11:17:28;;;;;;;12.80;7.97;;;;;;;2.29;100.00;97600.53;5019397;28;20207;-87
2021/12/15 11:19:59;;;;;;;13.03;7.40;;;;;;;2.18;100.00;97588.22;5025684;28;20222;-90
2021/12/15 11:22:49;;;;;;;14.30;7.63;;;;;;;2.20;100.00;97586.25;5025861;28;20239;-87
2021/12/15 11:25:28;;;;;;;12.23;7.80;;;;;;;2.28;100.00;97593.50;5022578;28;20210;-89
2021/12/15 11:27:59;;;;;;;13.70;7.47;;;;;;;2.23;100.00;97595.75;5025442;28;20211;-86
2021/12/15 11:30:31;;;;;;;16.10;8.73;;;;;;;2.25;100.00;97597.31;5027120;28;20292;-88
2021/12/15 11:33:01;;;;;;;13.17;7.70;;;;;;;2.24;100.00;97592.97;5015942;28;20219;-88
2021/12/15 11:35:30;;;;;;;21.27;8.23;;;;;;;2.17;100.00;97593.69;5025667;28;20262;-87
2021/12/15 11:38:02;;;;;;;16.20;8.47;;;;;;;2.21;100.00;97598.56;5012412;28;20298;-87
2021/12/15 11:40:34;;;;;;;17.40;9.30;;;;;;;2.17;100.00;97586.56;5012089;28;20215;-87
2021/12/15 11:43:03;;;;;;;15.57;8.83;;;;;;;2.21;100.00;97597.75;5017698;28;20211;-85
2021/12/15 11:45:31;;;;;;;16.07;8.77;;;;;;;2.25;100.00;97610.63;5024621;28;20258;-85
2021/12/15 11:48:20;;;;;;;19.53;9.57;;;;;;;2.21;100.00;97593.25;5015700;28;20219;-87
2021/12/15 11:50:50;;;;;;;18.63;9.63;;;;;;;2.28;100.00;97598.84;5023225;28;20209;-84
2021/12/15 11:53:40;;;;;;;18.27;9.90;;;;;;;2.27;100.00;97590.00;5016989;28;20210;-87
2021/12/15 11:56:25;;;;;;;16.73;9.50;;;;;;;2.32;100.00;97588.72;5023045;28;20233;-86
2021/12/15 11:58:57;;;;;;;23.57;10.30;;;;;;;2.29;100.00;97584.53;5019543;28;20215;-87
2021/12/15 12:01:46;;;;;;;22.77;10.90;;;;;;;2.27;100.00;97579.34;5038567;28;20203;-87
2021/12/15 12:04:18;;;;;;;18.23;9.50;;;;;;;2.28;100.00;97577.53;5021159;28;20201;-86
2021/12/15 12:06:47;;;;;;;17.07;9.97;;;;;;;2.30;100.00;97574.72;5020343;28;20239;-88
2021/12/15 12:09:18;;;;;;;17.33;10.30;;;;;;;2.34;100.00;97568.94;5026964;28;20207;-87
2021/12/15 12:11:50;;;;;;;15.33;8.93;;;;;;;2.35;100.00;97573.28;5020578;28;20292;-86
2021/12/15 12:14:37;;;;;;;17.20;10.00;;;;;;;2.26;100.00;97569.69;5032671;28;20237;-87
2021/12/15 12:17:12;;;;;;;19.00;9.67;;;;;;;2.12;100.00;97569.34;5026555;28;20282;-87
2021/12/15 12:19:43;;;;;;;17.07;9.40;;;;;;;2.06;100.00;97564.56;5034527;28;20304;-86
2021/12/15 12:22:12;;;;;;;15.90;8.53;;;;;;;1.97;100.00;97563.63;5015358;28;20238;-86
2021/12/15 12:24:40;;;;;;;21.87;9.67;;;;;;;1.87;100.00;97554.88;5012164;28;20230;-86
2021/12/15 12:27:08;;;;;;;19.60;10.30;;;;;;;1.92;100.00;97555.25;5012746;28;20260;-85
2021/12/15 12:29:36;;;;;;;20.50;10.77;;;;;;;1.96;100.00;97556.63;5020389;28;20302;-85
2021/12/15 12:32:04;;;;;;;17.80;10.00;;;;;;;1.90;100.00;97551.91;5025057;28;20236;-86
2021/12/15 12:34:33;;;;;;;18.93;9.93;;;;;;;1.89;100.00;97547.56;5017297;28;20208;-88
2021/12/15 12:37:01;;;;;;;19.63;10.40;;;;;;;1.91;100.00;97548.25;5020555;28;20233;-87
2021/12/15 12:39:34;;;;;;;16.77;10.20;;;;;;;1.95;100.00;97541.66;5022384;28;20253;-88